Time;durP1;ratioP1;P1;durP2;ratioP2;P2;SDS_P1;SDS_P2;PMS_P1;PMS_P2;Temp;Humidity;BMP_temperature;BMP_pressure;BME280_temperature;BME280_humidity;BME280_pressure;Samples;Min_cycle;Max_cycle;Signal;HPM_P1;HPM_P2
2022/08/13 00:00:01;;;;;;;1.50;1.10;;;27.20;34.10;;;;;;5020008;28;20092;-53
2022/08/13 00:02:42;;;;;;;2.08;1.35;;;27.20;34.10;;;;;;5024651;28;20375;-53
2022/08/13 00:05:09;;;;;;;1.50;1.30;;;27.20;34.20;;;;;;5024486;28;20511;-48
2022/08/13 00:07:35;;;;;;;1.45;1.15;;;27.20;34.20;;;;;;5026761;28;20068;-55
2022/08/13 00:10:04;;;;;;;1.80;1.00;;;27.20;34.20;;;;;;5023836;28;20428;-56
2022/08/13 00:15:33;;;;;;;1.38;1.10;;;27.10;34.10;;;;;;5018337;28;20450;-53
2022/08/13 00:18:11;;;;;;;1.65;1.33;;;27.20;34.20;;;;;;5018200;28;20069;-55
2022/08/13 00:20:41;;;;;;;1.20;1.02;;;27.10;34.10;;;;;;5031411;28;20080;-53
2022/08/13 00:23:10;;;;;;;1.05;0.90;;;27.10;34.10;;;;;;5033284;28;20438;-51
2022/08/13 00:25:36;;;;;;;2.08;1.20;;;27.10;34.20;;;;;;5037520;28;20056;-55
2022/08/13 00:28:04;;;;;;;1.35;1.00;;;27.10;34.20;;;;;;5037758;28;20033;-55
2022/08/13 00:30:33;;;;;;;1.00;0.90;;;27.10;34.20;;;;;;5030237;28;20037;-53
2022/08/13 00:33:12;;;;;;;1.17;1.08;;;27.10;34.20;;;;;;5035277;28;20025;-54
2022/08/13 00:35:41;;;;;;;2.55;0.98;;;27.10;34.20;;;;;;5027646;28;20117;-54
2022/08/13 00:38:16;;;;;;;1.90;1.23;;;27.10;34.20;;;;;;5036615;28;20037;-54
2022/08/13 00:40:44;;;;;;;1.00;0.90;;;27.10;34.20;;;;;;5036627;28;20116;-52
2022/08/13 00:43:10;;;;;;;1.13;0.93;;;27.10;34.20;;;;;;5037645;28;20025;-55
2022/08/13 00:45:36;;;;;;;1.20;0.82;;;27.10;34.20;;;;;;5037217;28;20041;-53
2022/08/13 00:50:50;;;;;;;2.78;1.15;;;27.10;34.30;;;;;;5036073;28;20055;-55
2022/08/13 00:53:18;;;;;;;1.02;0.90;;;27.10;35.00;;;;;;5035829;28;20061;-54
2022/08/13 00:55:48;;;;;;;1.90;1.00;;;27.10;34.40;;;;;;5036949;28;20384;-55
2022/08/13 00:58:19;;;;;;;1.70;0.93;;;27.10;34.40;;;;;;5034823;28;20045;-51
2022/08/13 01:00:57;;;;;;;1.33;0.98;;;27.10;34.40;;;;;;5034844;28;20041;-54
2022/08/13 01:03:24;;;;;;;1.77;0.90;;;27.00;34.30;;;;;;5035221;28;20036;-54
2022/08/13 01:05:50;;;;;;;1.00;0.73;;;27.00;34.30;;;;;;5037520;28;20322;-49
2022/08/13 01:08:18;;;;;;;0.98;0.80;;;27.10;34.30;;;;;;5036763;28;20030;-53
2022/08/13 01:10:49;;;;;;;1.30;0.85;;;27.00;34.30;;;;;;5031246;28;20061;-54
2022/08/13 01:13:17;;;;;;;1.48;0.80;;;27.00;34.30;;;;;;5016990;28;20034;-54
2022/08/13 01:15:44;;;;;;;1.38;0.88;;;27.00;34.40;;;;;;5016879;28;20049;-54
2022/08/13 01:18:14;;;;;;;1.67;1.00;;;27.00;34.40;;;;;;5028751;28;20076;-55
2022/08/13 01:20:49;;;;;;;1.70;0.73;;;27.00;34.40;;;;;;5017241;28;20102;-53
2022/08/13 01:23:17;;;;;;;0.90;0.80;;;27.00;34.40;;;;;;5024914;28;20037;-54
2022/08/13 01:25:44;;;;;;;1.45;1.00;;;27.00;34.40;;;;;;5036478;28;20069;-52
2022/08/13 01:28:15;;;;;;;0.98;0.90;;;27.00;34.40;;;;;;5036472;28;20099;-52
2022/08/13 01:30:46;;;;;;;1.10;0.77;;;27.00;34.40;;;;;;5021189;28;20029;-54
2022/08/13 01:33:16;;;;;;;1.67;0.90;;;27.00;34.40;;;;;;5020923;28;20045;-54
2022/08/13 01:35:42;;;;;;;2.00;0.80;;;27.00;34.40;;;;;;5017792;28;20034;-56
2022/08/13 01:38:09;;;;;;;0.82;0.73;;;27.00;34.40;;;;;;5016716;28;20081;-51
2022/08/13 01:40:34;;;;;;;1.10;0.73;;;27.00;34.40;;;;;;5035156;28;20112;-55
2022/08/13 01:43:02;;;;;;;1.90;0.75;;;27.00;34.50;;;;;;5034925;28;20176;-56
2022/08/13 01:45:30;;;;;;;2.70;0.80;;;26.90;34.50;;;;;;5028813;28;20049;-54
2022/08/13 01:50:41;;;;;;;1.70;0.80;;;26.90;34.50;;;;;;5016941;28;20044;-57
2022/08/13 01:53:13;;;;;;;1.08;0.90;;;26.90;34.50;;;;;;5027258;28;20116;-55
2022/08/13 01:55:42;;;;;;;3.03;0.80;;;26.90;34.50;;;;;;5036572;28;20037;-54
2022/08/13 01:58:11;;;;;;;1.25;0.80;;;26.90;34.50;;;;;;5032610;28;20026;-55
2022/08/13 02:00:39;;;;;;;0.80;0.80;;;26.90;34.60;;;;;;5033894;28;20108;-55
2022/08/13 02:03:11;;;;;;;1.05;0.60;;;26.90;34.70;;;;;;5016088;28;20034;-55
2022/08/13 02:05:39;;;;;;;1.55;0.90;;;26.90;34.60;;;;;;5016533;28;20053;-56
2022/08/13 02:08:09;;;;;;;0.95;0.70;;;26.90;35.20;;;;;;5016176;28;20037;-55
2022/08/13 02:10:38;;;;;;;0.70;0.63;;;26.90;34.50;;;;;;5030952;28;20087;-56
2022/08/13 02:13:11;;;;;;;1.98;0.82;;;26.90;34.50;;;;;;5023972;28;20029;-55
2022/08/13 02:15:41;;;;;;;1.08;0.70;;;26.90;34.50;;;;;;5031015;28;20467;-56
2022/08/13 02:18:17;;;;;;;1.13;0.80;;;26.90;34.60;;;;;;5035519;28;20121;-53
2022/08/13 02:20:45;;;;;;;0.80;0.60;;;26.80;34.50;;;;;;5032036;28;20439;-54
2022/08/13 02:23:16;;;;;;;1.08;0.70;;;26.80;35.10;;;;;;5034564;28;20087;-54
2022/08/13 02:25:45;;;;;;;1.27;0.80;;;26.80;34.50;;;;;;5028530;28;20099;-56
2022/08/13 02:28:12;;;;;;;1.35;0.73;;;26.80;34.50;;;;;;5014411;28;20365;-56
2022/08/13 02:30:38;;;;;;;0.50;0.50;;;26.80;34.60;;;;;;5015824;28;20453;-55
2022/08/13 02:33:05;;;;;;;0.65;0.63;;;26.80;34.60;;;;;;5015755;28;20038;-56
2022/08/13 02:35:35;;;;;;;1.15;0.90;;;26.80;34.60;;;;;;5015195;28;20099;-56
2022/08/13 02:38:02;;;;;;;1.13;0.80;;;26.80;34.60;;;;;;5016662;28;20084;-53
2022/08/13 02:43:12;;;;;;;0.80;0.70;;;26.80;34.60;;;;;;5021197;28;20465;-53
2022/08/13 02:45:39;;;;;;;1.08;0.80;;;26.80;34.60;;;;;;5014987;28;20033;-52
2022/08/13 02:48:08;;;;;;;0.60;0.60;;;26.80;34.60;;;;;;5028893;28;20029;-54
2022/08/13 02:50:42;;;;;;;0.77;0.52;;;26.80;34.60;;;;;;5035393;28;20045;-54
2022/08/13 02:53:09;;;;;;;0.70;0.52;;;26.80;34.60;;;;;;5034552;28;20033;-56
2022/08/13 02:55:36;;;;;;;0.85;0.52;;;26.80;34.50;;;;;;5018826;28;20045;-53
2022/08/13 02:58:04;;;;;;;1.02;0.70;;;26.80;34.60;;;;;;5019745;28;20065;-55
2022/08/13 03:00:31;;;;;;;0.70;0.60;;;26.80;34.60;;;;;;5015688;28;20044;-50
2022/08/13 03:02:57;;;;;;;1.33;0.70;;;26.80;34.70;;;;;;5015394;28;20033;-55
2022/08/13 03:05:23;;;;;;;0.93;0.70;;;26.80;34.70;;;;;;5014916;28;20045;-56
2022/08/13 03:07:49;;;;;;;0.80;0.70;;;26.70;34.60;;;;;;5015702;28;20041;-53
2022/08/13 03:10:19;;;;;;;0.70;0.50;;;26.80;34.60;;;;;;5015590;28;20132;-57
2022/08/13 03:12:49;;;;;;;3.40;1.08;;;26.80;34.60;;;;;;5015637;28;20038;-53
2022/08/13 03:15:17;;;;;;;1.00;0.75;;;26.80;34.60;;;;;;5030004;28;20063;-55
2022/08/13 03:17:43;;;;;;;0.90;0.60;;;26.70;34.50;;;;;;5031251;28;20063;-55
2022/08/13 03:20:16;;;;;;;0.90;0.60;;;26.70;34.50;;;;;;5015315;28;20034;-54
2022/08/13 03:22:47;;;;;;;2.00;0.77;;;26.70;34.70;;;;;;5027463;28;20029;-55
2022/08/13 03:25:14;;;;;;;0.82;0.60;;;26.70;34.60;;;;;;5038555;28;20046;-55
2022/08/13 03:27:40;;;;;;;1.67;0.70;;;26.70;34.60;;;;;;5038356;28;20030;-53
2022/08/13 03:30:06;;;;;;;0.75;0.60;;;26.70;34.60;;;;;;5032985;28;20122;-54
2022/08/13 03:32:40;;;;;;;0.80;0.60;;;26.70;34.60;;;;;;5019308;28;20077;-56
2022/08/13 03:35:09;;;;;;;0.50;0.50;;;26.70;34.60;;;;;;5027549;28;20477;-54
2022/08/13 03:37:35;;;;;;;2.42;0.70;;;26.70;34.60;;;;;;5038795;28;20033;-52
2022/08/13 03:40:02;;;;;;;1.08;0.50;;;26.70;34.60;;;;;;5034805;28;20513;-52
2022/08/13 03:42:28;;;;;;;0.63;0.50;;;26.70;34.60;;;;;;5022237;28;20076;-53
2022/08/13 03:44:54;;;;;;;0.70;0.60;;;26.70;34.60;;;;;;5018710;28;20061;-50
2022/08/13 03:47:20;;;;;;;1.50;0.68;;;26.70;34.60;;;;;;5029364;28;20467;-54
2022/08/13 03:49:46;;;;;;;0.40;0.40;;;26.70;34.60;;;;;;5037659;28;20033;-55
2022/08/13 03:52:13;;;;;;;0.73;0.60;;;26.60;34.60;;;;;;5037524;28;20108;-56
2022/08/13 03:54:40;;;;;;;1.27;0.65;;;26.60;34.50;;;;;;5027708;28;20037;-53
2022/08/13 03:57:07;;;;;;;1.02;0.60;;;26.60;34.50;;;;;;5018658;28;20045;-54
2022/08/13 03:59:33;;;;;;;0.65;0.63;;;26.70;34.60;;;;;;5032343;28;20140;-55
2022/08/13 04:02:01;;;;;;;0.90;0.52;;;26.60;34.60;;;;;;5038818;28;20033;-52
2022/08/13 04:04:29;;;;;;;0.60;0.50;;;26.60;34.60;;;;;;5037761;28;20057;-57
2022/08/13 04:06:57;;;;;;;0.70;0.50;;;26.60;34.60;;;;;;5032946;28;20029;-54
2022/08/13 04:09:23;;;;;;;0.70;0.60;;;26.60;34.60;;;;;;5024208;28;20117;-51
2022/08/13 04:11:49;;;;;;;2.25;0.70;;;26.60;34.60;;;;;;5022237;28;20393;-56
2022/08/13 04:14:14;;;;;;;1.48;0.60;;;26.60;34.60;;;;;;5017946;28;20139;-57
2022/08/13 04:16:40;;;;;;;0.80;0.50;;;26.60;34.60;;;;;;5019136;28;20041;-54
2022/08/13 04:19:07;;;;;;;2.13;0.60;;;26.60;34.60;;;;;;5037466;28;20470;-54
2022/08/13 04:21:37;;;;;;;1.25;0.60;;;26.60;34.60;;;;;;5037967;28;20037;-54
2022/08/13 04:24:03;;;;;;;1.05;0.50;;;26.60;34.60;;;;;;5021517;28;20430;-53
2022/08/13 04:26:30;;;;;;;0.90;0.52;;;26.60;34.60;;;;;;5018262;28;20076;-55
2022/08/13 04:28:57;;;;;;;0.60;0.60;;;26.60;34.70;;;;;;5018395;28;20041;-56
2022/08/13 04:31:24;;;;;;;1.17;0.60;;;26.60;34.70;;;;;;5029177;28;20033;-55
2022/08/13 04:33:50;;;;;;;1.48;0.68;;;26.60;34.70;;;;;;5026590;28;20095;-53
2022/08/13 04:36:17;;;;;;;1.85;0.75;;;26.60;34.80;;;;;;5037854;28;20441;-56
2022/08/13 04:38:43;;;;;;;0.68;0.45;;;26.60;34.80;;;;;;5031235;28;20026;-52
2022/08/13 04:41:09;;;;;;;0.57;0.47;;;26.50;34.80;;;;;;5017824;28;20503;-56
2022/08/13 04:43:35;;;;;;;1.13;0.47;;;26.60;34.90;;;;;;5037588;28;20495;-55
2022/08/13 04:46:01;;;;;;;0.90;0.47;;;26.60;34.80;;;;;;5036658;28;20033;-56
2022/08/13 04:48:28;;;;;;;1.67;0.73;;;26.50;34.70;;;;;;5017556;28;20026;-54
2022/08/13 04:50:54;;;;;;;0.38;0.35;;;26.60;34.90;;;;;;5000732;28;20404;-52
2022/08/13 04:53:33;;;;;;;1.00;0.60;;;26.50;34.80;;;;;;5018965;28;20441;-55
2022/08/13 04:55:59;;;;;;;0.93;0.52;;;26.60;34.90;;;;;;5037295;28;20052;-55
2022/08/13 04:58:32;;;;;;;0.90;0.60;;;26.60;34.90;;;;;;5038093;28;20029;-51
2022/08/13 05:01:00;;;;;;;0.52;0.50;;;26.50;34.90;;;;;;5035057;28;20423;-53
2022/08/13 05:03:26;;;;;;;0.40;0.40;;;26.50;34.90;;;;;;5025686;28;20025;-55
2022/08/13 05:05:52;;;;;;;2.28;0.60;;;26.50;35.00;;;;;;5024980;28;20041;-57
2022/08/13 05:08:19;;;;;;;0.90;0.52;;;26.50;35.00;;;;;;5017737;28;20415;-52
2022/08/13 05:10:47;;;;;;;0.75;0.52;;;26.50;35.60;;;;;;5035318;28;20429;-54
2022/08/13 05:13:27;;;;;;;0.88;0.45;;;26.50;35.00;;;;;;5036566;28;20049;-55
2022/08/13 05:15:59;;;;;;;0.52;0.52;;;26.50;35.00;;;;;;5036739;28;20029;-52
2022/08/13 05:18:26;;;;;;;0.50;0.40;;;26.50;35.00;;;;;;5021905;28;20453;-54
2022/08/13 05:20:55;;;;;;;0.85;0.55;;;26.50;35.10;;;;;;5023164;28;20494;-55
2022/08/13 05:23:23;;;;;;;0.82;0.57;;;26.50;35.10;;;;;;5035496;28;20044;-54
2022/08/13 05:25:50;;;;;;;0.70;0.50;;;26.50;35.10;;;;;;5035212;28;20060;-54
2022/08/13 05:28:20;;;;;;;2.08;0.60;;;26.50;35.10;;;;;;5036338;28;20396;-57
2022/08/13 05:30:47;;;;;;;0.60;0.50;;;26.50;35.10;;;;;;5024606;28;20437;-55
2022/08/13 05:33:18;;;;;;;2.13;0.60;;;26.50;35.10;;;;;;5017054;28;20434;-54
2022/08/13 05:35:46;;;;;;;0.80;0.40;;;26.50;35.10;;;;;;5016822;28;20033;-55
2022/08/13 05:38:13;;;;;;;1.63;0.50;;;26.50;35.10;;;;;;5016572;28;20018;-52
2022/08/13 05:40:38;;;;;;;1.00;0.52;;;26.50;35.10;;;;;;5016533;28;20034;-55
2022/08/13 05:43:33;;;;;;;1.02;0.50;;;26.50;35.10;;;;;;5020478;28;20428;-52
2022/08/13 05:46:08;;;;;;;0.50;0.50;;;26.50;35.20;;;;;;5033893;28;20388;-54
2022/08/13 05:48:41;;;;;;;1.83;0.68;;;26.50;35.20;;;;;;5035147;28;20036;-53
2022/08/13 05:51:10;;;;;;;0.70;0.60;;;26.50;35.20;;;;;;5035361;28;20048;-53
2022/08/13 05:53:37;;;;;;;1.00;0.70;;;26.50;35.20;;;;;;5018805;28;20040;-54
2022/08/13 05:56:06;;;;;;;0.50;0.50;;;26.50;35.30;;;;;;5026828;28;20514;-55
2022/08/13 05:58:34;;;;;;;3.78;0.60;;;26.50;35.30;;;;;;5036296;28;20041;-52
2022/08/13 06:03:46;;;;;;;1.73;0.52;;;26.50;35.30;;;;;;5035668;28;20046;-55
2022/08/13 06:06:18;;;;;;;0.50;0.50;;;26.50;35.30;;;;;;5022664;28;20416;-56
2022/08/13 06:08:44;;;;;;;0.77;0.50;;;26.50;35.40;;;;;;5015762;28;20105;-54
2022/08/13 06:11:15;;;;;;;0.70;0.68;;;26.50;35.40;;;;;;5015792;28;20408;-52
2022/08/13 06:13:42;;;;;;;0.70;0.70;;;26.50;35.50;;;;;;5016085;28;20030;-54
2022/08/13 06:16:10;;;;;;;1.42;0.80;;;26.50;35.50;;;;;;5027347;28;20064;-56
2022/08/13 06:18:40;;;;;;;1.33;0.60;;;26.50;35.50;;;;;;5030748;28;20100;-56
2022/08/13 06:21:11;;;;;;;2.55;0.75;;;26.50;35.60;;;;;;5036102;28;20029;-53
2022/08/13 06:23:38;;;;;;;0.50;0.50;;;26.50;35.60;;;;;;5026103;28;20065;-51
2022/08/13 06:26:07;;;;;;;0.82;0.70;;;26.50;35.60;;;;;;5022503;28;20468;-53
2022/08/13 06:28:35;;;;;;;0.98;0.43;;;26.50;35.60;;;;;;5034774;28;20071;-54
2022/08/13 06:31:07;;;;;;;1.65;0.63;;;26.50;35.60;;;;;;5032336;28;20480;-53
2022/08/13 06:33:35;;;;;;;1.08;0.60;;;26.50;35.60;;;;;;5018369;28;20037;-50
2022/08/13 06:36:04;;;;;;;1.58;0.50;;;26.50;35.60;;;;;;5034512;28;20030;-55
2022/08/13 06:38:36;;;;;;;0.75;0.65;;;26.50;36.30;;;;;;5023075;28;20022;-55
2022/08/13 06:41:07;;;;;;;4.90;0.70;;;26.50;35.70;;;;;;5015297;28;20045;-52
2022/08/13 06:43:40;;;;;;;1.95;0.60;;;26.40;35.70;;;;;;5015931;28;20365;-54
2022/08/13 06:46:07;;;;;;;2.55;0.88;;;26.40;35.70;;;;;;5025631;28;20230;-52
2022/08/13 06:48:34;;;;;;;1.52;0.95;;;26.40;35.80;;;;;;5017395;28;20049;-52
2022/08/13 06:51:04;;;;;;;1.40;0.68;;;26.50;35.90;;;;;;5030011;28;20029;-54
2022/08/13 06:53:32;;;;;;;3.03;0.68;;;26.40;35.80;;;;;;5024165;28;20026;-54
2022/08/13 06:55:58;;;;;;;1.92;0.60;;;26.40;35.90;;;;;;5020175;28;20108;-52
2022/08/13 06:58:28;;;;;;;2.65;0.70;;;26.40;35.90;;;;;;5020791;28;20044;-53
2022/08/13 07:00:55;;;;;;;0.70;0.60;;;26.40;35.90;;;;;;5020131;28;20033;-52
2022/08/13 07:03:29;;;;;;;1.17;0.60;;;26.40;36.00;;;;;;5014671;28;20033;-52
2022/08/13 07:05:57;;;;;;;1.35;0.70;;;26.40;36.00;;;;;;5015724;28;20441;-53
2022/08/13 07:08:28;;;;;;;3.05;0.70;;;26.40;36.10;;;;;;5015564;28;20034;-51
2022/08/13 07:13:43;;;;;;;1.95;0.70;;;26.40;36.20;;;;;;5030165;28;20048;-54
2022/08/13 07:16:17;;;;;;;4.30;0.77;;;26.40;36.20;;;;;;5026178;28;20445;-56
2022/08/13 07:18:46;;;;;;;0.50;0.50;;;26.40;36.30;;;;;;5014273;28;20408;-55
2022/08/13 07:21:14;;;;;;;1.60;0.60;;;26.50;36.40;;;;;;5023645;28;20666;-54
2022/08/13 07:23:42;;;;;;;8.88;0.70;;;26.50;36.50;;;;;;5018174;28;20080;-53
2022/08/13 07:26:09;;;;;;;0.70;0.60;;;26.50;36.50;;;;;;5015765;28;20129;-50
2022/08/13 07:28:35;;;;;;;2.85;0.82;;;26.40;36.40;;;;;;5015210;28;20412;-55
2022/08/13 07:31:06;;;;;;;2.28;0.70;;;26.50;36.50;;;;;;5024443;28;20034;-52
2022/08/13 07:33:37;;;;;;;2.53;1.20;;;26.50;36.60;;;;;;5034782;28;20033;-54
2022/08/13 07:36:05;;;;;;;1.00;0.70;;;26.50;36.60;;;;;;5017664;28;20057;-53
2022/08/13 07:38:31;;;;;;;1.60;0.75;;;26.50;36.70;;;;;;5020652;28;20028;-56
2022/08/13 07:41:00;;;;;;;2.33;1.25;;;26.50;36.70;;;;;;5026711;28;20461;-54
2022/08/13 07:43:27;;;;;;;1.33;0.80;;;26.50;36.80;;;;;;5015923;28;20113;-55
2022/08/13 07:46:09;;;;;;;1.08;0.82;;;26.50;36.80;;;;;;5026930;28;20068;-56
2022/08/13 07:48:42;;;;;;;1.30;0.93;;;26.50;36.90;;;;;;5034846;28;20052;-53
2022/08/13 07:51:15;;;;;;;3.05;0.93;;;26.50;37.10;;;;;;5018935;28;20022;-54
2022/08/13 07:53:41;;;;;;;3.70;1.05;;;26.50;37.20;;;;;;5021308;28;20053;-54
2022/08/13 07:56:08;;;;;;;1.17;0.95;;;26.60;37.40;;;;;;5022647;28;20079;-51
2022/08/13 07:58:35;;;;;;;1.48;0.93;;;26.60;37.40;;;;;;5025248;28;20025;-57
2022/08/13 08:01:03;;;;;;;1.77;1.00;;;26.60;37.40;;;;;;5030537;28;20034;-54
2022/08/13 08:03:37;;;;;;;2.47;0.90;;;26.60;37.40;;;;;;5014780;28;20052;-53
2022/08/13 08:06:05;;;;;;;0.95;0.80;;;26.60;37.40;;;;;;5015018;28;20038;-54
2022/08/13 08:08:33;;;;;;;1.83;0.93;;;26.60;37.50;;;;;;5030541;28;20029;-53
2022/08/13 08:11:01;;;;;;;1.60;1.00;;;26.60;37.50;;;;;;5020711;28;20033;-55
2022/08/13 08:13:32;;;;;;;1.05;0.80;;;26.60;37.50;;;;;;5038294;28;20103;-55
2022/08/13 08:15:59;;;;;;;1.60;1.15;;;26.70;37.60;;;;;;5020238;28;20173;-55
2022/08/13 08:18:25;;;;;;;1.73;0.60;;;26.60;37.50;;;;;;5018687;28;20049;-55
2022/08/13 08:21:04;;;;;;;1.85;0.82;;;26.60;37.50;;;;;;5020888;28;20030;-53
2022/08/13 08:23:32;;;;;;;4.63;1.10;;;26.70;37.60;;;;;;5018317;28;20408;-57
2022/08/13 08:26:00;;;;;;;2.40;0.90;;;26.70;37.70;;;;;;5017861;28;20119;-54
2022/08/13 08:28:30;;;;;;;2.33;0.73;;;26.70;37.80;;;;;;5023924;28;20041;-53
2022/08/13 08:30:56;;;;;;;1.52;0.80;;;26.70;37.90;;;;;;5025889;28;20036;-53
2022/08/13 08:33:26;;;;;;;1.10;0.95;;;26.70;38.00;;;;;;5025845;28;20689;-56
2022/08/13 08:35:54;;;;;;;1.23;1.00;;;26.70;38.10;;;;;;5024347;28;20029;-53
2022/08/13 08:43:53;;;;;;;1.58;0.90;;;26.70;38.20;;;;;;5022997;28;19916;-55
2022/08/13 08:46:21;;;;;;;1.45;0.70;;;26.70;38.20;;;;;;5025155;28;20048;-55
2022/08/13 08:48:48;;;;;;;1.83;0.82;;;26.70;38.10;;;;;;5027939;28;20061;-52
2022/08/13 08:51:18;;;;;;;2.78;0.82;;;26.70;38.10;;;;;;5024870;28;20080;-55
2022/08/13 08:53:44;;;;;;;1.67;0.88;;;26.70;38.10;;;;;;5025797;28;20462;-53
2022/08/13 08:56:11;;;;;;;0.70;0.68;;;26.70;38.00;;;;;;5026510;28;20109;-54
2022/08/13 08:58:41;;;;;;;0.70;0.70;;;26.70;38.00;;;;;;5031371;28;20136;-54
2022/08/13 09:01:13;;;;;;;1.38;0.68;;;26.70;37.90;;;;;;5023249;28;20069;-57
2022/08/13 09:03:48;;;;;;;1.00;0.90;;;26.70;38.10;;;;;;5029405;28;20057;-54
2022/08/13 09:06:23;;;;;;;1.60;0.70;;;26.70;37.90;;;;;;5030049;28;20057;-52
2022/08/13 09:08:53;;;;;;;2.65;0.70;;;26.70;38.00;;;;;;5033929;28;20437;-55
2022/08/13 09:11:19;;;;;;;2.08;1.02;;;26.80;38.20;;;;;;5018336;28;20079;-53
2022/08/13 09:13:55;;;;;;;1.65;0.85;;;26.80;38.30;;;;;;5032500;28;20037;-53
2022/08/13 09:16:23;;;;;;;1.02;0.70;;;26.80;38.30;;;;;;5021825;28;20053;-52
2022/08/13 09:18:50;;;;;;;1.48;0.77;;;26.80;38.10;;;;;;5021707;28;20030;-54
2022/08/13 09:21:17;;;;;;;0.85;0.60;;;26.80;38.00;;;;;;5017176;28;20042;-53
2022/08/13 09:23:46;;;;;;;0.77;0.60;;;26.80;37.90;;;;;;5017457;28;20349;-54
2022/08/13 09:26:14;;;;;;;0.88;0.60;;;26.80;37.90;;;;;;5016851;28;20133;-57
2022/08/13 09:28:42;;;;;;;1.65;0.75;;;26.80;37.80;;;;;;5016802;28;20038;-53
2022/08/13 09:31:10;;;;;;;0.80;0.63;;;26.90;37.80;;;;;;5033323;28;20167;-54
2022/08/13 09:33:38;;;;;;;0.70;0.50;;;26.90;37.80;;;;;;5021726;28;20045;-50
2022/08/13 09:36:11;;;;;;;0.90;0.70;;;26.90;37.80;;;;;;5017216;28;20033;-52
2022/08/13 09:38:38;;;;;;;1.13;0.68;;;26.90;38.00;;;;;;5024294;28;20452;-53
2022/08/13 09:41:17;;;;;;;0.85;0.68;;;26.90;38.10;;;;;;5024716;28;20029;-52
2022/08/13 09:43:44;;;;;;;3.03;1.00;;;26.90;38.10;;;;;;5016461;28;20168;-51
2022/08/13 09:46:15;;;;;;;0.98;0.57;;;26.90;38.10;;;;;;5020026;28;20473;-57
2022/08/13 09:48:41;;;;;;;0.98;0.60;;;26.90;38.30;;;;;;5027451;28;20029;-50
2022/08/13 09:51:13;;;;;;;1.55;0.70;;;26.90;38.30;;;;;;5030222;28;20120;-52
2022/08/13 09:53:45;;;;;;;1.10;0.60;;;26.90;38.40;;;;;;5023154;28;20033;-51
2022/08/13 09:56:13;;;;;;;0.90;0.70;;;26.90;38.40;;;;;;5033975;28;20441;-50
2022/08/13 09:58:38;;;;;;;1.80;0.88;;;26.90;38.40;;;;;;5018114;28;20149;-49
2022/08/13 10:01:04;;;;;;;1.13;0.80;;;27.00;38.40;;;;;;5032724;28;20056;-52
2022/08/13 10:03:33;;;;;;;0.77;0.70;;;26.90;38.20;;;;;;5032198;28;20035;-50
2022/08/13 10:05:59;;;;;;;1.48;0.85;;;27.00;38.20;;;;;;5034790;28;20041;-52
2022/08/13 10:08:25;;;;;;;1.40;0.60;;;27.00;38.20;;;;;;5034153;28;20099;-52
2022/08/13 10:10:50;;;;;;;1.48;0.60;;;27.00;38.20;;;;;;5026633;28;20037;-51
2022/08/13 10:13:16;;;;;;;1.13;0.77;;;27.00;38.10;;;;;;5017833;28;20165;-52
2022/08/13 10:15:42;;;;;;;1.15;0.68;;;27.00;38.00;;;;;;5025670;28;20036;-54
2022/08/13 10:18:08;;;;;;;0.98;0.70;;;27.00;37.90;;;;;;5030621;28;20105;-54
2022/08/13 10:20:39;;;;;;;0.75;0.70;;;27.00;37.90;;;;;;5024797;28;20342;-51
2022/08/13 10:23:08;;;;;;;1.40;0.70;;;27.00;37.80;;;;;;5033815;28;20405;-56
2022/08/13 10:25:37;;;;;;;1.05;0.60;;;27.00;37.80;;;;;;5019228;28;20037;-55
2022/08/13 10:28:16;;;;;;;0.75;0.60;;;27.00;37.70;;;;;;5030682;28;20465;-56
2022/08/13 10:30:43;;;;;;;0.70;0.70;;;27.00;37.50;;;;;;5017643;28;20338;-56
2022/08/13 10:33:11;;;;;;;2.38;0.60;;;27.00;37.50;;;;;;5020814;28;20034;-56
2022/08/13 10:35:37;;;;;;;2.65;0.80;;;27.00;37.50;;;;;;5025707;28;20116;-52
2022/08/13 10:38:05;;;;;;;1.95;0.90;;;27.00;37.70;;;;;;5034293;28;20048;-62
2022/08/13 10:40:32;;;;;;;1.20;0.73;;;27.10;37.70;;;;;;5022469;28;20029;-62
2022/08/13 10:42:57;;;;;;;1.38;0.85;;;27.10;37.70;;;;;;5031680;28;20041;-62
2022/08/13 10:45:24;;;;;;;3.58;1.63;;;27.10;37.70;;;;;;5032045;28;20041;-61
2022/08/13 10:47:56;;;;;;;1.10;0.90;;;27.10;37.60;;;;;;5021134;28;20037;-57
2022/08/13 10:50:29;;;;;;;0.90;0.65;;;27.10;37.50;;;;;;5015562;28;20044;-65
2022/08/13 10:52:57;;;;;;;2.30;0.90;;;27.20;37.60;;;;;;5029021;28;20033;-65
2022/08/13 10:55:24;;;;;;;1.17;0.60;;;27.20;37.50;;;;;;5022948;28;20033;-65
2022/08/13 10:57:50;;;;;;;0.60;0.60;;;27.20;38.00;;;;;;5020336;28;20033;-66
2022/08/13 11:00:17;;;;;;;0.43;0.43;;;27.30;38.30;;;;;;5024858;28;20030;-65
2022/08/13 11:02:46;;;;;;;1.67;0.50;;;27.30;38.30;;;;;;5021476;28;20109;-65
2022/08/13 11:05:12;;;;;;;0.60;0.60;;;27.40;38.40;;;;;;5021958;28;20922;-68
2022/08/13 11:07:38;;;;;;;0.50;0.50;;;27.50;38.40;;;;;;5021783;28;20026;-69
2022/08/13 11:10:06;;;;;;;0.90;0.60;;;27.60;38.30;;;;;;5027284;28;20057;-65
2022/08/13 11:12:50;;;;;;;1.42;0.80;;;27.70;38.10;;;;;;5022388;28;20065;-64
2022/08/13 11:15:23;;;;;;;1.77;0.80;;;27.70;37.80;;;;;;5027198;28;20475;-68
2022/08/13 11:17:56;;;;;;;1.23;0.70;;;27.80;37.60;;;;;;5023693;28;20030;-68
2022/08/13 11:20:24;;;;;;;1.77;0.75;;;27.80;37.20;;;;;;5022632;28;20033;-66
2022/08/13 11:22:56;;;;;;;1.08;0.80;;;27.80;36.90;;;;;;5026429;28;20025;-65
2022/08/13 11:25:23;;;;;;;2.25;0.70;;;27.90;36.60;;;;;;5022669;28;20030;-66
2022/08/13 11:27:49;;;;;;;0.80;0.60;;;27.90;36.40;;;;;;5019607;28;20029;-64
2022/08/13 11:30:16;;;;;;;0.75;0.70;;;27.90;36.40;;;;;;5026645;28;20100;-66
2022/08/13 11:32:42;;;;;;;0.88;0.80;;;27.90;36.20;;;;;;5026955;28;20025;-63
2022/08/13 11:35:10;;;;;;;1.45;0.70;;;28.10;36.00;;;;;;5020936;28;20187;-63
2022/08/13 11:37:36;;;;;;;2.05;0.63;;;28.00;35.50;;;;;;5020692;28;20029;-65
2022/08/13 11:40:04;;;;;;;3.47;0.73;;;28.00;35.70;;;;;;5024572;28;20045;-65
2022/08/13 11:42:32;;;;;;;2.05;0.60;;;28.00;35.50;;;;;;5024563;28;20025;-69
2022/08/13 11:44:59;;;;;;;0.68;0.60;;;28.00;35.20;;;;;;5027267;28;20044;-66
2022/08/13 11:47:24;;;;;;;1.02;0.93;;;28.00;35.00;;;;;;5024640;28;20123;-65
2022/08/13 11:49:50;;;;;;;1.15;0.65;;;27.90;34.70;;;;;;5023060;28;20112;-66
2022/08/13 11:52:16;;;;;;;0.85;0.70;;;27.80;34.60;;;;;;5024117;28;20482;-64
2022/08/13 11:54:42;;;;;;;1.80;0.65;;;27.80;34.50;;;;;;5025944;28;20474;-64
2022/08/13 11:57:08;;;;;;;0.95;0.65;;;27.70;34.40;;;;;;5025529;28;20026;-69
2022/08/13 11:59:34;;;;;;;3.92;0.73;;;27.70;34.30;;;;;;5024967;28;20033;-63
2022/08/13 12:02:00;;;;;;;3.15;0.50;;;27.70;34.40;;;;;;5027674;28;20330;-62
2022/08/13 12:04:27;;;;;;;0.70;0.50;;;27.70;34.70;;;;;;5023222;28;20066;-65
2022/08/13 12:06:53;;;;;;;0.70;0.52;;;27.70;34.70;;;;;;5023353;28;20057;-69
2022/08/13 12:09:20;;;;;;;0.82;0.60;;;27.80;34.70;;;;;;5027058;28;20083;-64
2022/08/13 12:11:46;;;;;;;1.30;0.57;;;27.90;35.00;;;;;;5030714;28;20026;-64
2022/08/13 12:14:12;;;;;;;2.33;0.60;;;28.00;35.10;;;;;;5029498;28;20026;-65
2022/08/13 12:16:38;;;;;;;0.75;0.70;;;28.10;35.10;;;;;;5027352;28;20055;-64
2022/08/13 12:19:04;;;;;;;0.70;0.50;;;28.20;35.10;;;;;;5032253;28;20022;-64
2022/08/13 12:21:32;;;;;;;0.73;0.60;;;28.30;35.10;;;;;;5028450;28;20053;-66
2022/08/13 12:23:59;;;;;;;1.95;0.50;;;28.30;35.10;;;;;;5032142;28;20444;-65
2022/08/13 12:26:27;;;;;;;0.82;0.50;;;28.40;35.10;;;;;;5032898;28;20048;-64
2022/08/13 12:28:55;;;;;;;1.38;0.52;;;28.50;35.10;;;;;;5026599;28;20384;-65
2022/08/13 12:31:21;;;;;;;1.05;0.73;;;28.60;35.10;;;;;;5025249;28;20037;-65
2022/08/13 12:33:48;;;;;;;1.02;0.60;;;28.60;35.10;;;;;;5036117;28;20423;-65
2022/08/13 12:36:14;;;;;;;0.88;0.68;;;28.70;35.10;;;;;;5026412;28;20053;-65
2022/08/13 12:38:39;;;;;;;0.45;0.45;;;28.80;35.20;;;;;;5026159;28;20049;-63
2022/08/13 12:41:06;;;;;;;4.97;0.70;;;28.80;35.00;;;;;;5032972;28;20044;-67
2022/08/13 12:43:32;;;;;;;1.80;0.45;;;28.90;35.10;;;;;;5021594;28;20068;-65
2022/08/13 12:45:59;;;;;;;0.95;0.52;;;28.90;35.00;;;;;;5024264;28;20062;-68
2022/08/13 12:48:30;;;;;;;0.80;0.63;;;28.90;35.10;;;;;;5023216;28;20108;-69
2022/08/13 12:50:57;;;;;;;0.68;0.55;;;29.00;35.20;;;;;;5025354;28;20029;-68
2022/08/13 12:53:23;;;;;;;1.35;0.57;;;29.00;35.20;;;;;;5023843;28;20050;-68
2022/08/13 12:55:49;;;;;;;0.68;0.50;;;29.00;35.20;;;;;;5027456;28;20029;-67
2022/08/13 12:58:18;;;;;;;0.70;0.50;;;29.00;35.10;;;;;;5023988;28;20104;-70
2022/08/13 13:00:46;;;;;;;0.57;0.57;;;29.00;35.00;;;;;;5025995;28;20033;-70
2022/08/13 13:03:13;;;;;;;2.22;0.60;;;29.10;35.00;;;;;;5022651;28;20508;-66
2022/08/13 13:05:44;;;;;;;4.13;0.60;;;29.20;34.90;;;;;;5024899;28;20045;-66
2022/08/13 13:08:16;;;;;;;0.80;0.50;;;29.20;34.80;;;;;;5024067;28;20407;-67
2022/08/13 13:10:44;;;;;;;0.70;0.50;;;29.20;34.80;;;;;;5026135;28;20356;-66
2022/08/13 13:13:11;;;;;;;0.60;0.43;;;29.20;34.80;;;;;;5026260;28;20109;-65
2022/08/13 13:15:40;;;;;;;0.60;0.60;;;29.20;34.80;;;;;;5024185;28;20338;-66